Time;durP1;ratioP1;P1;durP2;ratioP2;P2;SDS_P1;SDS_P2;PMS_P1;PMS_P2;Temp;Humidity;BMP_temperature;BMP_pressure;BME280_temperature;BME280_humidity;BME280_pressure;Samples;Min_cycle;Max_cycle;Signal;HPM_P1;HPM_P2
2022/02/28 00:00:28;;;;;;;11.35;6.18;;;;;;;-139.48;100.00;61774.03;5014421;28;20132;-74
2022/02/28 00:03:12;;;;;;;12.25;5.88;;;;;;;-139.48;100.00;61774.03;5014275;28;20045;-74
2022/02/28 00:05:56;;;;;;;10.88;6.05;;;;;;;-139.48;100.00;61774.03;5014474;28;20060;-73
2022/02/28 00:08:40;;;;;;;10.00;5.53;;;;;;;-139.48;100.00;61774.03;5015158;28;20107;-73
2022/02/28 00:11:24;;;;;;;10.10;5.72;;;;;;;-139.48;100.00;61774.03;5000532;28;20056;-74
2022/02/28 00:14:08;;;;;;;;;;;;;;;-139.48;100.00;61774.03;5014679;28;20080;-74
2022/02/28 00:16:52;;;;;;;12.80;6.07;;;;;;;-139.48;100.00;61774.03;5015180;28;19983;-75
2022/02/28 00:19:35;;;;;;;9.82;5.95;;;;;;;-139.48;100.00;61774.03;5014849;28;20401;-74
2022/02/28 00:22:19;;;;;;;;;;;;;;;-139.48;100.00;61774.03;5041040;22;20464;-72
2022/02/28 00:25:05;;;;;;;11.68;6.10;;;;;;;-139.48;100.00;61774.03;5015043;28;20044;-71
2022/02/28 00:27:49;;;;;;;11.30;6.85;;;;;;;-139.48;100.00;61774.03;5013934;28;20088;-70
2022/02/28 00:30:34;;;;;;;9.27;5.75;;;;;;;-139.48;100.00;61774.03;5014433;28;20045;-71
2022/02/28 00:33:18;;;;;;;10.75;5.70;;;;;;;-139.48;100.00;61774.03;5014811;28;20500;-69
2022/02/28 00:36:03;;;;;;;9.85;5.55;;;;;;;-139.48;100.00;61774.03;5013908;28;20088;-72
2022/02/28 00:38:47;;;;;;;11.88;6.10;;;;;;;-139.48;100.00;61774.03;4999888;28;20417;-71
2022/02/28 00:41:31;;;;;;;;;;;;;;;-139.48;100.00;61774.03;5015412;28;20040;-72
2022/02/28 00:44:15;;;;;;;13.07;7.50;;;;;;;-139.48;100.00;61774.03;5013408;28;19925;-72
2022/02/28 00:46:58;;;;;;;14.43;6.88;;;;;;;-139.48;100.00;61774.03;5013383;28;20338;-72
2022/02/28 00:49:42;;;;;;;14.95;8.15;;;;;;;-139.48;100.00;61774.03;5013575;28;20045;-72
2022/02/28 00:52:26;;;;;;;;;;;;;;;-139.48;100.00;61774.03;5014873;28;20466;-70
2022/02/28 00:55:11;;;;;;;10.97;5.77;;;;;;;-139.48;100.00;61774.03;5013768;28;19964;-72
2022/02/28 00:57:56;;;;;;;11.57;6.93;;;;;;;-139.48;100.00;61774.03;5013265;28;20314;-72
2022/02/28 01:00:39;;;;;;;12.80;6.88;;;;;;;-139.48;100.00;61774.03;5013262;28;20053;-72
2022/02/28 01:03:25;;;;;;;15.25;7.50;;;;;;;-139.48;100.00;61774.03;5013031;28;20082;-72
2022/02/28 01:06:08;;;;;;;11.13;6.07;;;;;;;-139.48;100.00;61774.03;4999220;28;20052;-72
2022/02/28 01:08:52;;;;;;;7.45;5.53;;;;;;;-139.48;100.00;61774.03;5014015;28;20088;-71
2022/02/28 01:11:36;;;;;;;;;;;;;;;-139.48;100.00;61774.03;5014355;28;20413;-70
2022/02/28 01:14:20;;;;;;;9.68;6.10;;;;;;;-139.48;100.00;61774.03;5013203;28;19936;-72
2022/02/28 01:17:06;;;;;;;13.05;6.78;;;;;;;-139.48;100.00;61774.03;5013939;28;20120;-72
2022/02/28 01:19:50;;;;;;;10.50;5.95;;;;;;;-139.48;100.00;61774.03;5013009;28;20061;-72
2022/02/28 01:22:34;;;;;;;13.98;6.95;;;;;;;-139.48;100.00;61774.03;5013726;28;20137;-73
2022/02/28 01:25:18;;;;;;;;;;;;;;;-139.48;100.00;61774.03;5013203;28;20414;-71
2022/02/28 01:28:03;;;;;;;10.90;6.20;;;;;;;-139.48;100.00;61774.03;5012693;28;20369;-71
2022/02/28 01:30:47;;;;;;;10.95;6.32;;;;;;;-139.48;100.00;61774.03;4998919;28;20067;-72
2022/02/28 01:33:32;;;;;;;;;;;;;;;-139.48;100.00;61774.03;5014142;28;20091;-72
2022/02/28 01:36:16;;;;;;;9.52;5.65;;;;;;;-139.48;100.00;61774.03;5012776;28;19920;-72
2022/02/28 01:39:00;;;;;;;;;;;;;;;-139.48;100.00;61774.03;5013101;28;20552;-72
2022/02/28 01:41:44;;;;;;;13.70;6.23;;;;;;;-139.48;100.00;61774.03;5012580;28;20380;-72
2022/02/28 01:44:28;;;;;;;10.25;6.07;;;;;;;-139.48;100.00;61774.03;5013538;28;20333;-70
2022/02/28 01:47:12;;;;;;;10.75;6.43;;;;;;;-139.48;100.00;61774.03;4998684;28;20048;-71
2022/02/28 01:49:56;;;;;;;14.48;6.60;;;;;;;-139.48;100.00;61774.03;5012559;28;20127;-72
2022/02/28 01:52:41;;;;;;;11.40;6.07;;;;;;;-139.48;100.00;61774.03;5013697;28;20052;-72
2022/02/28 01:55:25;;;;;;;11.80;5.90;;;;;;;-139.48;100.00;61774.03;5012407;28;20049;-72
2022/02/28 01:58:09;;;;;;;9.75;5.40;;;;;;;-139.48;100.00;61774.03;5013152;28;20048;-72
2022/02/28 02:00:53;;;;;;;;;;;;;;;-139.48;100.00;61774.03;5012553;28;20053;-71
2022/02/28 02:03:37;;;;;;;9.55;5.97;;;;;;;-139.48;100.00;61774.03;5013012;28;20449;-72
2022/02/28 02:06:21;;;;;;;9.50;5.07;;;;;;;-139.48;100.00;61774.03;5013319;28;20045;-71
2022/02/28 02:09:06;;;;;;;11.43;5.50;;;;;;;-139.48;100.00;61774.03;5013571;28;20589;-72
2022/02/28 02:11:49;;;;;;;;;;;;;;;-139.48;100.00;61774.03;5012294;28;20187;-70
2022/02/28 02:14:35;;;;;;;10.95;6.18;;;;;;;-139.48;100.00;61774.03;5011950;28;19940;-72
2022/02/28 02:17:19;;;;;;;10.52;6.10;;;;;;;-139.48;100.00;61774.03;5012183;28;20465;-72
2022/02/28 02:20:04;;;;;;;10.60;5.60;;;;;;;-139.48;100.00;61774.03;5013300;28;20044;-73
2022/02/28 02:22:59;;;;;;;11.52;7.07;;;;;;;-139.48;100.00;61774.03;5011885;28;20138;-70
2022/02/28 02:25:44;;;;;;;10.30;5.82;;;;;;;-139.48;100.00;61774.03;5012069;28;20049;-70
2022/02/28 02:28:28;;;;;;;14.25;7.30;;;;;;;-139.48;100.00;61774.03;5011952;28;20096;-72
2022/02/28 02:31:12;;;;;;;;;;;;;;;-139.48;100.00;61774.03;5012439;28;20128;-72
2022/02/28 02:33:56;;;;;;;8.20;4.50;;;;;;;-139.48;100.00;61774.03;5011749;28;19920;-72
2022/02/28 02:36:41;;;;;;;11.95;6.68;;;;;;;-139.48;100.00;61774.03;5011724;28;20057;-72
2022/02/28 02:39:25;;;;;;;11.05;6.22;;;;;;;-139.48;100.00;61774.03;5012693;28;20116;-72
2022/02/28 02:42:10;;;;;;;10.23;6.13;;;;;;;-139.48;100.00;61774.03;5012100;28;20088;-69
2022/02/28 02:44:54;;;;;;;15.23;7.53;;;;;;;-139.48;100.00;61774.03;5011684;28;20568;-72
2022/02/28 02:47:38;;;;;;;;;;;;;;;-139.48;100.00;61774.03;5012249;28;20057;-72
2022/02/28 02:50:22;;;;;;;10.40;6.28;;;;;;;-139.48;100.00;61774.03;5011623;28;19960;-72
2022/02/28 02:53:06;;;;;;;;;;;;;;;-139.48;100.00;61774.03;5012237;28;20067;-72
2022/02/28 02:55:50;;;;;;;11.90;5.78;;;;;;;-139.48;100.00;61774.03;5016039;28;19920;-72
2022/02/28 02:58:33;;;;;;;;;;;;;;;7.35;52.78;101909.19;5002315;28;20405;-70
2022/02/28 03:01:18;;;;;;;12.38;6.22;;;;;;;-0.17;100.00;101928.19;5016684;28;20008;-72
2022/02/28 03:04:01;;;;;;;;;;;;;;;-0.22;100.00;101924.81;5016166;28;20072;-72
2022/02/28 03:06:45;;;;;;;12.10;6.72;;;;;;;-0.21;100.00;101936.16;5015641;28;19967;-72
2022/02/28 03:09:29;;;;;;;;;;;;;;;-0.23;100.00;101930.09;5016213;28;20103;-72
2022/02/28 03:12:14;;;;;;;9.70;4.68;;;;;;;-0.25;100.00;101931.91;5016706;28;19921;-71
2022/02/28 03:14:58;;;;;;;12.13;6.50;;;;;;;-0.24;100.00;101925.75;5016767;28;20393;-70
2022/02/28 03:17:42;;;;;;;;;;;;;;;-0.24;100.00;101926.59;5016008;28;20100;-72
2022/02/28 03:20:26;;;;;;;11.60;6.50;;;;;;;-0.26;100.00;101935.41;5016135;28;19920;-71
2022/02/28 03:23:10;;;;;;;16.17;6.90;;;;;;;-0.29;100.00;101932.84;5000983;28;20052;-72
2022/02/28 03:25:54;;;;;;;12.20;6.97;;;;;;;-0.35;100.00;101940.88;5016294;28;20049;-71
2022/02/28 03:28:38;;;;;;;10.90;7.28;;;;;;;-0.29;100.00;101945.97;5014917;28;20052;-72
2022/02/28 03:31:22;;;;;;;10.00;6.22;;;;;;;-0.10;100.00;101942.00;5015874;28;20103;-71
2022/02/28 03:34:06;;;;;;;;;;;;;;;0.05;100.00;101942.50;5015243;28;20044;-72
2022/02/28 03:36:50;;;;;;;12.60;6.88;;;;;;;0.16;100.00;101943.94;5016038;28;19985;-72
2022/02/28 03:39:34;;;;;;;14.95;7.45;;;;;;;0.19;100.00;101940.38;5014975;28;20048;-71
2022/02/28 03:42:17;;;;;;;;;;;;;;;0.19;100.00;101933.38;5015205;28;20157;-71
2022/02/28 03:45:02;;;;;;;12.25;7.45;;;;;;;0.07;100.00;101933.69;5014824;28;19986;-69
2022/02/28 03:47:46;;;;;;;15.45;6.97;;;;;;;-0.09;100.00;101928.00;5014938;28;20108;-72
2022/02/28 03:50:30;;;;;;;11.95;6.35;;;;;;;-0.24;100.00;101934.47;5014644;28;20064;-72
2022/02/28 03:53:14;;;;;;;;;;;;;;;-0.35;100.00;101933.88;5015985;28;20049;-72
2022/02/28 03:55:58;;;;;;;14.38;6.97;;;;;;;-0.42;100.00;101931.44;5014561;28;19924;-73
2022/02/28 03:58:42;;;;;;;11.80;6.75;;;;;;;-0.43;100.00;101937.56;5014968;28;20061;-71
2022/02/28 04:01:26;;;;;;;;;;;;;;;-0.52;100.00;101938.63;5016077;28;20145;-70
2022/02/28 04:04:10;;;;;;;13.13;7.00;;;;;;;-0.65;100.00;101946.81;5014415;28;19924;-72
2022/02/28 04:06:54;;;;;;;;;;;;;;;-0.70;100.00;101935.56;5014741;28;20409;-71
2022/02/28 04:09:39;;;;;;;8.93;5.28;;;;;;;-0.71;100.00;101936.47;5014435;28;19960;-72
2022/02/28 04:12:23;;;;;;;12.50;7.07;;;;;;;-0.64;100.00;101938.06;5014361;28;20057;-71
2022/02/28 04:15:07;;;;;;;;;;;;;;;-0.65;100.00;101938.97;5014766;28;20095;-72
2022/02/28 04:17:51;;;;;;;11.15;6.28;;;;;;;-0.73;100.00;101928.63;5014358;28;19962;-71
2022/02/28 04:20:35;;;;;;;;;;;;;;;-0.71;100.00;101936.47;5015763;28;20063;-70
2022/02/28 04:23:19;;;;;;;12.77;6.97;;;;;;;-0.68;100.00;101925.91;5014899;28;19920;-72
2022/02/28 04:26:04;;;;;;;11.38;7.47;;;;;;;-0.60;100.00;101929.22;5015157;28;20041;-72
2022/02/28 04:28:51;;;;;;;16.10;7.82;;;;;;;-0.65;100.00;101931.09;5013771;28;20096;-72
2022/02/28 04:31:35;;;;;;;19.02;8.38;;;;;;;-0.73;100.00;101933.03;5014938;28;20064;-68
2022/02/28 04:34:18;;;;;;;;;;;;;;;-0.78;100.00;101929.63;5014126;28;20129;-70
2022/02/28 04:37:03;;;;;;;14.83;8.07;;;;;;;-0.77;100.00;101924.38;5014887;28;19920;-72
2022/02/28 04:39:47;;;;;;;14.90;7.30;;;;;;;-0.73;100.00;101922.53;5013654;28;20762;-72
2022/02/28 04:42:31;;;;;;;16.65;9.10;;;;;;;-0.61;100.00;101932.75;5014115;28;20513;-72
2022/02/28 04:45:15;;;;;;;17.15;8.25;;;;;;;-0.49;100.00;101929.84;5014581;28;20167;-72
2022/02/28 04:47:59;;;;;;;12.60;8.02;;;;;;;-0.50;100.00;101920.25;5013812;28;20052;-69
2022/02/28 04:50:42;;;;;;;15.23;8.55;;;;;;;-0.65;100.00;101915.38;5014884;28;20092;-72
2022/02/28 04:53:26;;;;;;;12.15;7.97;;;;;;;-0.74;100.00;101924.28;5013508;28;20055;-72
2022/02/28 04:56:10;;;;;;;;;;;;;;;-0.71;100.00;101920.75;5015038;28;20536;-72
2022/02/28 04:58:54;;;;;;;17.17;8.53;;;;;;;-0.79;100.00;101922.66;4999884;28;20371;-71
2022/02/28 05:01:37;;;;;;;16.15;9.25;;;;;;;-0.84;100.00;101920.16;5013259;28;20056;-71
2022/02/28 05:04:21;;;;;;;;;;;;;;;-0.82;100.00;101913.13;5014803;28;20044;-72
2022/02/28 05:07:05;;;;;;;16.07;8.93;;;;;;;-0.82;100.00;101925.38;5014469;28;19963;-72
2022/02/28 05:09:49;;;;;;;15.52;8.95;;;;;;;-0.83;100.00;101916.63;5014427;28;20270;-71
2022/02/28 05:12:33;;;;;;;;;;;;;;;-0.85;100.00;101933.28;5014458;28;20057;-72
2022/02/28 05:15:17;;;;;;;16.90;8.57;;;;;;;-0.87;100.00;101929.81;5014625;28;19987;-71
2022/02/28 05:18:01;;;;;;;15.75;9.15;;;;;;;-0.93;100.00;101925.56;5014204;28;20053;-72
2022/02/28 05:20:45;;;;;;;16.02;8.23;;;;;;;-0.99;100.00;101924.84;5014184;28;20044;-72
2022/02/28 05:23:29;;;;;;;13.68;8.07;;;;;;;-1.03;100.00;101928.44;5012829;28;20057;-72
2022/02/28 05:26:13;;;;;;;15.85;8.45;;;;;;;-0.99;100.00;101933.56;5013139;28;20410;-71
2022/02/28 05:28:57;;;;;;;17.13;9.05;;;;;;;-1.00;100.00;101929.25;5013037;28;20084;-71
2022/02/28 05:31:40;;;;;;;16.85;9.20;;;;;;;-0.95;100.00;101937.84;5013884;28;20049;-72
2022/02/28 05:34:24;;;;;;;;;;;;;;;-0.94;100.00;101929.09;5014452;28;20128;-72
2022/02/28 05:37:08;;;;;;;16.65;9.45;;;;;;;-0.95;100.00;101932.59;5013969;28;19925;-72
2022/02/28 05:39:52;;;;;;;;;;;;;;;-0.92;100.00;101931.69;4999501;28;20135;-72
2022/02/28 05:42:37;;;;;;;15.05;8.65;;;;;;;-0.93;100.00;101929.97;5012625;28;19920;-71
2022/02/28 05:45:20;;;;;;;19.20;8.90;;;;;;;-0.96;100.00;101925.66;5012756;28;20417;-71
2022/02/28 05:48:05;;;;;;;;;;;;;;;-0.96;100.00;101938.75;4999295;28;20044;-71
2022/02/28 05:50:49;;;;;;;17.17;8.80;;;;;;;-0.93;100.00;101935.19;5013557;28;19944;-72
2022/02/28 05:53:32;;;;;;;16.55;9.27;;;;;;;-0.95;100.00;101937.00;5012437;28;20053;-71
2022/02/28 05:56:16;;;;;;;17.02;8.40;;;;;;;-1.00;100.00;101934.47;5013753;28;20509;-70
2022/02/28 05:59:00;;;;;;;;;;;;;;;-1.02;100.00;101940.63;5014579;28;20103;-71
2022/02/28 06:01:44;;;;;;;19.95;10.23;;;;;;;-0.97;100.00;101938.75;5012548;28;19943;-71
2022/02/28 06:04:28;;;;;;;23.25;11.10;;;;;;;-1.03;100.00;101938.91;5013320;28;20072;-71
2022/02/28 06:07:12;;;;;;;;;;;;;;;-1.08;100.00;101945.97;5013671;28;20115;-72
2022/02/28 06:09:56;;;;;;;16.75;9.55;;;;;;;-1.05;100.00;101944.16;5013502;28;19920;-71
2022/02/28 06:12:40;;;;;;;;;;;;;;;-1.00;100.00;101944.06;5013559;28;20134;-72
2022/02/28 06:15:24;;;;;;;19.83;9.95;;;;;;;-1.00;100.00;101938.84;5012396;28;20027;-71
2022/02/28 06:18:09;;;;;;;18.05;9.70;;;;;;;-0.98;100.00;101934.41;5013391;28;20096;-70
2022/02/28 06:20:54;;;;;;;20.35;10.43;;;;;;;-0.99;100.00;101943.16;4998711;28;20176;-72
2022/02/28 06:23:38;;;;;;;;;;;;;;;-0.98;100.00;101940.53;5035692;23;20048;-73
2022/02/28 06:26:21;;;;;;;21.20;10.32;;;;;;;-0.89;100.00;101942.09;5031623;28;20297;-74
2022/02/28 06:29:05;;;;;;;;;;;;;;;-0.87;100.00;101942.91;5031376;28;20052;-74
2022/02/28 06:31:49;;;;;;;20.57;9.50;;;;;;;-0.76;100.00;101943.56;5031777;28;19955;-73
2022/02/28 06:34:33;;;;;;;;;;;;;;;-0.61;100.00;101953.69;5032200;28;20309;-72
2022/02/28 06:37:17;;;;;;;16.77;10.27;;;;;;;-0.56;100.00;101952.69;5032495;28;20341;-74
2022/02/28 06:40:02;;;;;;;19.75;10.25;;;;;;;-0.52;100.00;101949.09;5032773;28;20063;-73
2022/02/28 06:42:46;;;;;;;20.20;9.95;;;;;;;-0.36;100.00;101949.59;5031603;28;20052;-74
2022/02/28 06:45:30;;;;;;;19.65;9.38;;;;;;;-0.27;100.00;101955.50;5031606;28;20057;-74
2022/02/28 06:48:15;;;;;;;17.38;8.95;;;;;;;-0.13;100.00;101963.06;5031697;28;20071;-73
2022/02/28 06:50:59;;;;;;;19.20;9.10;;;;;;;-0.08;100.00;101969.03;5031489;28;20076;-73
2022/02/28 06:53:42;;;;;;;20.75;10.43;;;;;;;0.00;100.00;101971.44;5032146;28;20051;-74
2022/02/28 06:56:26;;;;;;;18.33;10.20;;;;;;;0.03;100.00;101970.50;5031787;28;20488;-74
2022/02/28 06:59:11;;;;;;;16.55;9.18;;;;;;;0.02;100.00;101974.88;5032344;28;20525;-74
2022/02/28 07:01:55;;;;;;;18.55;9.45;;;;;;;0.04;100.00;101973.06;5032316;28;20052;-74
2022/02/28 07:04:38;;;;;;;16.70;9.20;;;;;;;0.05;100.00;101974.84;5031222;28;20417;-74
2022/02/28 07:07:22;;;;;;;;;;;;;;;0.12;100.00;101983.41;5032989;28;20413;-74
2022/02/28 07:10:10;;;;;;;17.02;9.13;;;;;;;0.13;100.00;101980.72;5017307;28;20299;-74
2022/02/28 07:12:54;;;;;;;18.88;9.95;;;;;;;0.13;100.00;101978.09;5031100;28;20122;-74
2022/02/28 07:15:43;;;;;;;16.02;9.07;;;;;;;0.16;100.00;101972.81;5017124;28;20068;-74
2022/02/28 07:18:27;;;;;;;19.17;10.20;;;;;;;0.22;100.00;101969.16;5031188;28;20118;-74
2022/02/28 07:21:11;;;;;;;;;;;;;;;0.28;100.00;101967.25;5032839;28;20052;-74
2022/02/28 07:23:57;;;;;;;18.35;9.73;;;;;;;0.38;100.00;101967.84;5030827;28;20012;-74
2022/02/28 07:26:41;;;;;;;21.25;11.18;;;;;;;0.51;100.00;101972.75;5031261;28;20512;-74
2022/02/28 07:29:25;;;;;;;19.85;10.80;;;;;;;0.62;100.00;101968.06;5017019;28;20052;-74
2022/02/28 07:32:09;;;;;;;19.90;10.80;;;;;;;0.70;100.00;101968.72;5031232;28;20099;-73
2022/02/28 07:34:53;;;;;;;;;;;;;;;0.75;100.00;101969.47;5032649;28;20076;-74
2022/02/28 07:37:37;;;;;;;20.88;10.85;;;;;;;0.81;100.00;101971.94;5031273;28;19971;-74
2022/02/28 07:40:21;;;;;;;19.17;11.43;;;;;;;0.91;100.00;101973.41;5032481;28;20091;-74
2022/02/28 07:43:05;;;;;;;22.45;10.95;;;;;;;1.00;100.00;101973.13;5034464;28;20191;-74
2022/02/28 07:45:49;;;;;;;22.73;11.27;;;;;;;1.12;100.00;101977.16;5034287;28;20088;-74
2022/02/28 07:48:33;;;;;;;;;;;;;;;1.26;100.00;101975.84;5035996;28;20052;-74
2022/02/28 07:51:17;;;;;;;20.88;8.07;;;;;;;1.34;100.00;101981.75;5035564;28;19935;-74
2022/02/28 07:54:01;;;;;;;19.42;10.07;;;;;;;1.42;100.00;101985.03;5035969;28;20128;-74
2022/02/28 07:56:45;;;;;;;22.23;10.75;;;;;;;1.50;100.00;101993.53;5035430;28;20610;-74
2022/02/28 07:59:29;;;;;;;;;;;;;;;1.73;100.00;101996.34;5020796;28;20191;-75
2022/02/28 08:02:13;;;;;;;13.27;7.47;;;;;;;1.87;100.00;101994.13;5035167;28;19938;-74
2022/02/28 08:04:57;;;;;;;18.08;10.05;;;;;;;1.96;100.00;101999.09;5035221;28;20095;-75
2022/02/28 08:07:41;;;;;;;15.52;9.63;;;;;;;2.04;100.00;101998.84;5034272;28;20186;-74
2022/02/28 08:10:25;;;;;;;20.70;9.90;;;;;;;2.35;100.00;101989.91;5020407;28;20060;-74
2022/02/28 08:13:11;;;;;;;16.85;8.77;;;;;;;2.47;100.00;101993.91;5019888;28;20048;-74
2022/02/28 08:15:57;;;;;;;17.67;9.45;;;;;;;2.57;100.00;101988.28;5035039;28;20049;-74
2022/02/28 08:18:42;;;;;;;16.13;9.55;;;;;;;2.72;100.00;101987.75;5033796;28;20140;-75
2022/02/28 08:21:26;;;;;;;15.90;9.52;;;;;;;2.81;100.00;101990.03;5034167;28;20118;-75
2022/02/28 08:24:10;;;;;;;;;;;;;;;3.01;100.00;101984.91;5034859;28;20102;-74
2022/02/28 08:26:54;;;;;;;16.30;9.43;;;;;;;3.12;100.00;101978.34;5034938;28;19920;-74
2022/02/28 08:29:38;;;;;;;17.35;10.07;;;;;;;3.35;100.00;101990.69;5034858;28;20052;-74
2022/02/28 08:32:22;;;;;;;;;;;;;;;3.44;99.48;101985.91;5035207;28;20056;-75
2022/02/28 08:35:06;;;;;;;16.98;9.48;;;;;;;3.60;94.69;101986.19;5033384;28;19920;-74
2022/02/28 08:37:50;;;;;;;18.58;10.07;;;;;;;3.76;93.39;101987.31;5035003;28;20052;-75
2022/02/28 08:40:34;;;;;;;18.73;10.77;;;;;;;3.92;91.96;101977.88;5034269;28;20111;-74
2022/02/28 08:43:18;;;;;;;14.70;9.05;;;;;;;4.00;84.32;101978.44;5033426;28;20136;-74
2022/02/28 08:46:04;;;;;;;15.60;9.30;;;;;;;4.09;82.42;101978.94;5033288;28;20413;-74
2022/02/28 08:48:47;;;;;;;16.42;9.13;;;;;;;4.21;79.86;101980.19;5033407;28;20164;-74
2022/02/28 08:51:31;;;;;;;16.95;9.38;;;;;;;4.35;79.52;101978.69;5033854;28;20076;-74
2022/02/28 08:54:15;;;;;;;19.10;9.95;;;;;;;4.42;79.42;101976.66;5019229;28;20527;-75
2022/02/28 08:57:03;;;;;;;14.02;8.90;;;;;;;4.53;77.43;101966.50;5019430;28;20139;-74
2022/02/28 08:59:47;;;;;;;15.02;9.75;;;;;;;4.66;76.31;101980.91;5033233;28;20080;-73
2022/02/28 09:02:31;;;;;;;19.25;9.68;;;;;;;4.74;75.17;101978.78;5033975;28;20463;-75
2022/02/28 09:05:15;;;;;;;16.85;10.23;;;;;;;4.88;76.71;101985.19;5018880;28;20051;-75
2022/02/28 09:08:00;;;;;;;17.10;8.80;;;;;;;5.12;75.13;101987.59;5034578;28;20060;-74
2022/02/28 09:10:44;;;;;;;16.67;8.68;;;;;;;5.24;74.46;101988.84;5032833;28;20079;-75
2022/02/28 09:13:28;;;;;;;16.90;9.90;;;;;;;5.37;72.72;101988.22;5033867;28;20049;-75
2022/02/28 09:16:12;;;;;;;16.60;9.20;;;;;;;5.63;70.81;101985.22;5032972;28;20052;-75
2022/02/28 09:18:56;;;;;;;;;;;;;;;5.85;68.65;101982.47;5033192;28;20071;-75
2022/02/28 09:21:40;;;;;;;19.73;9.43;;;;;;;5.93;66.25;101981.16;5018534;28;19919;-75
2022/02/28 09:24:24;;;;;;;26.73;10.20;;;;;;;6.19;67.20;101980.75;5032500;28;20515;-75
2022/02/28 09:27:08;;;;;;;17.25;9.13;;;;;;;6.93;64.73;101985.75;5033885;28;20471;-75
2022/02/28 09:29:52;;;;;;;;;;;;;;;8.24;58.53;101985.50;5032879;28;20048;-75
2022/02/28 09:32:36;;;;;;;13.97;9.07;;;;;;;9.33;52.73;101985.94;5033882;28;19919;-68
2022/02/28 09:35:20;;;;;;;13.13;8.43;;;;;;;11.25;48.90;101968.53;5033638;28;20588;-74
2022/02/28 09:38:04;;;;;;;10.93;8.13;;;;;;;13.12;41.82;101972.25;5032483;28;20532;-74
2022/02/28 09:40:49;;;;;;;15.65;9.18;;;;;;;13.95;39.47;101969.06;5033251;28;20551;-73
2022/02/28 09:43:34;;;;;;;13.85;9.00;;;;;;;13.95;39.47;101969.06;5032133;28;20140;-73
2022/02/28 09:46:18;;;;;;;13.45;8.82;;;;;;;15.73;35.50;101957.13;5031909;28;20091;-71
2022/02/28 09:49:02;;;;;;;14.13;8.95;;;;;;;16.56;35.03;101960.28;5032241;28;20455;-73
2022/02/28 09:51:47;;;;;;;14.07;10.25;;;;;;;-139.48;100.00;61774.03;5032127;28;20095;-72
2022/02/28 09:54:31;;;;;;;13.80;9.02;;;;;;;-139.48;100.00;61774.03;5032917;28;20067;-73
2022/02/28 09:57:18;;;;;;;13.57;9.05;;;;;;;-139.48;100.00;61774.03;5033217;28;20424;-73
2022/02/28 10:00:03;;;;;;;13.48;8.93;;;;;;;-139.48;100.00;61774.03;5031960;28;20412;-73
2022/02/28 10:02:48;;;;;;;14.88;9.93;;;;;;;-139.48;100.00;61774.03;5017895;28;20060;-67
2022/02/28 10:05:32;;;;;;;15.18;11.25;;;;;;;-139.48;100.00;61774.03;5031437;28;20048;-68
2022/02/28 10:08:16;;;;;;;12.15;9.02;;;;;;;-139.48;100.00;61774.03;5031934;28;20052;-73
2022/02/28 10:11:01;;;;;;;10.55;8.32;;;;;;;-139.48;100.00;61774.03;5031838;28;20047;-72
2022/02/28 10:13:45;;;;;;;18.05;10.13;;;;;;;-139.48;100.00;61774.03;5032808;28;20535;-73
2022/02/28 10:16:36;;;;;;;14.10;9.85;;;;;;;-139.48;100.00;61774.03;5032777;28;20115;-73
2022/02/28 10:19:21;;;;;;;14.63;11.30;;;;;;;-139.48;100.00;61774.03;5032979;28;20047;-73
2022/02/28 10:22:06;;;;;;;12.38;9.60;;;;;;;-139.48;100.00;61774.03;5033250;28;20099;-73
2022/02/28 10:24:54;;;;;;;14.52;10.13;;;;;;;-139.48;100.00;61774.03;5031674;28;20409;-73
2022/02/28 10:27:38;;;;;;;27.10;17.55;;;;;;;-139.48;100.00;61774.03;5032695;28;20049;-73
2022/02/28 10:30:30;;;;;;;13.27;10.60;;;;;;;-139.48;100.00;61774.03;5032753;28;20125;-71
2022/02/28 10:33:14;;;;;;;12.80;9.73;;;;;;;-139.48;100.00;61774.03;5032786;28;20115;-73
2022/02/28 10:36:27;;;;;;;12.73;8.50;;;;;;;-139.48;100.00;61774.03;5031665;28;20048;-73
2022/02/28 10:39:12;;;;;;;11.55;7.88;;;;;;;-139.48;100.00;61774.03;5014661;28;20500;-73
2022/02/28 10:42:07;;;;;;;12.65;9.30;;;;;;;-139.48;100.00;61774.03;5032600;28;20095;-73
2022/02/28 10:45:17;;;;;;;10.25;8.43;;;;;;;-139.48;100.00;61774.03;5031463;28;20100;-73
2022/02/28 10:48:01;;;;;;;10.63;8.82;;;;;;;-139.48;100.00;61774.03;5032987;28;20045;-73
2022/02/28 10:50:45;;;;;;;11.65;9.10;;;;;;;-139.48;100.00;61774.03;5031623;28;20184;-73
2022/02/28 10:53:29;;;;;;;9.82;8.52;;;;;;;-139.48;100.00;61774.03;5031379;28;20049;-73
2022/02/28 10:56:13;;;;;;;12.20;8.40;;;;;;;-139.48;100.00;61774.03;5031552;28;20048;-73
2022/02/28 10:59:03;;;;;;;9.80;8.43;;;;;;;-139.48;100.00;61774.03;5032628;28;20049;-73
2022/02/28 11:01:48;;;;;;;11.55;8.30;;;;;;;-139.48;100.00;61774.03;5031635;28;20159;-73
2022/02/28 11:04:41;;;;;;;12.05;8.63;;;;;;;-139.48;100.00;61774.03;5031172;28;20044;-73
2022/02/28 11:07:25;;;;;;;8.57;7.60;;;;;;;-139.48;100.00;61774.03;5031330;28;20061;-73
2022/02/28 11:10:11;;;;;;;9.65;7.85;;;;;;;-139.48;100.00;61774.03;5032388;28;20044;-73
2022/02/28 11:12:59;;;;;;;11.30;9.20;;;;;;;-139.48;100.00;61774.03;5032241;28;20520;-73
2022/02/28 11:15:43;;;;;;;10.32;8.27;;;;;;;-139.48;100.00;61774.03;5019666;28;20072;-72
2022/02/28 11:18:27;;;;;;;9.68;7.78;;;;;;;-139.48;100.00;61774.03;5021409;28;20114;-73
2022/02/28 11:21:12;;;;;;;16.02;13.05;;;;;;;-139.48;100.00;61774.03;5036234;28;20068;-73
2022/02/28 11:23:57;;;;;;;9.48;7.95;;;;;;;-139.48;100.00;61774.03;5034758;28;20099;-73
2022/02/28 11:26:41;;;;;;;10.80;7.57;;;;;;;-139.48;100.00;61774.03;5034990;28;20052;-73
2022/02/28 11:29:26;;;;;;;9.50;7.40;;;;;;;-139.48;100.00;61774.03;5021056;28;20640;-73
2022/02/28 11:32:10;;;;;;;10.45;7.70;;;;;;;-139.48;100.00;61774.03;5036014;28;20409;-73
2022/02/28 11:35:33;;;;;;;10.85;7.88;;;;;;;-139.48;100.00;61774.03;5035730;28;20048;-73
2022/02/28 11:38:17;;;;;;;12.00;7.90;;;;;;;-139.48;100.00;61774.03;5035960;28;20045;-73
2022/02/28 11:41:04;;;;;;;9.90;7.63;;;;;;;-139.48;100.00;61774.03;5036337;28;20512;-73
2022/02/28 11:43:53;;;;;;;9.00;7.47;;;;;;;-139.48;100.00;61774.03;5034817;28;20079;-73
2022/02/28 11:46:39;;;;;;;8.43;6.70;;;;;;;-139.48;100.00;61774.03;5035673;28;20044;-73
2022/02/28 11:49:23;;;;;;;8.57;7.38;;;;;;;-139.48;100.00;61774.03;5034992;28;20056;-73
2022/02/28 11:52:37;;;;;;;12.70;7.95;;;;;;;-139.48;100.00;61774.03;5034903;28;20098;-73
2022/02/28 11:55:21;;;;;;;10.10;7.17;;;;;;;-139.48;100.00;61774.03;5030454;28;20044;-73
2022/02/28 11:58:14;;;;;;;10.45;7.28;;;;;;;-139.48;100.00;61774.03;5034598;28;20044;-73
2022/02/28 12:01:10;;;;;;;9.18;7.03;;;;;;;-139.48;100.00;61774.03;5035630;28;20102;-72
2022/02/28 12:04:06;;;;;;;7.80;7.00;;;;;;;-139.48;100.00;61774.03;5035901;28;20056;-73
2022/02/28 12:07:24;;;;;;;8.88;7.13;;;;;;;-139.48;100.00;61774.03;5035608;28;20420;-73
2022/02/28 12:10:12;;;;;;;8.52;7.55;;;;;;;-139.48;100.00;61774.03;5029091;28;20095;-73
2022/02/28 12:12:58;;;;;;;9.88;7.90;;;;;;;-139.48;100.00;61774.03;5034117;28;20060;-73
2022/02/28 12:15:42;;;;;;;13.32;11.93;;;;;;;16.56;35.03;101960.28;5034070;28;20455;-73
2022/02/28 12:18:26;;;;;;;11.15;8.82;;;;;;;28.44;18.00;101856.28;5035230;28;20114;-73
2022/02/28 12:21:10;;;;;;;11.27;9.43;;;;;;;28.34;17.44;101844.94;5020357;28;20049;-73
2022/02/28 12:23:55;;;;;;;8.90;8.00;;;;;;;27.91;17.71;101852.16;5033892;28;20053;-74
2022/02/28 12:26:39;;;;;;;9.63;8.25;;;;;;;28.00;17.33;101848.09;5055870;22;20052;-72
2022/02/28 12:29:29;;;;;;;11.05;8.25;;;;;;;26.74;18.28;101851.63;5013850;28;20107;-72
2022/02/28 12:32:47;;;;;;;9.52;8.18;;;;;;;26.40;17.90;101842.75;5013746;28;20053;-72
2022/02/28 12:35:50;;;;;;;9.63;8.13;;;;;;;26.40;17.90;101842.75;5013875;28;20053;-72
2022/02/28 12:38:39;;;;;;;11.45;7.68;;;;;;;25.83;18.99;101834.19;5008292;28;20131;-70
2022/02/28 12:41:26;;;;;;;10.55;7.72;;;;;;;-139.48;100.00;61774.03;4994096;28;20052;-70
2022/02/28 12:44:12;;;;;;;8.73;7.22;;;;;;;-139.48;100.00;61774.03;4995444;28;20052;-71